sensor_id;sensor_type;location;lat;lon;timestamp;temperature;humidity
56298;DHT22;42208;6.376;-10.782;2022-07-23T00:00:59;25.90;99.90
56298;DHT22;42208;6.376;-10.782;2022-07-23T00:03:27;26.00;99.90
56298;DHT22;42208;6.376;-10.782;2022-07-23T00:05:56;26.00;99.90
56298;DHT22;42208;6.376;-10.782;2022-07-23T00:08:24;26.00;99.90
56298;DHT22;42208;6.376;-10.782;2022-07-23T00:10:52;26.00;99.90
56298;DHT22;42208;6.376;-10.782;2022-07-23T00:13:20;26.00;99.90
56298;DHT22;42208;6.376;-10.782;2022-07-23T00:15:48;26.00;99.90
56298;DHT22;42208;6.376;-10.782;2022-07-23T00:18:17;26.00;99.90
56298;DHT22;42208;6.376;-10.782;2022-07-23T00:20:45;26.00;99.90
56298;DHT22;42208;6.376;-10.782;2022-07-23T00:23:13;26.10;99.90
56298;DHT22;42208;6.376;-10.782;2022-07-23T00:25:42;26.00;99.90
56298;DHT22;42208;6.376;-10.782;2022-07-23T00:28:11;26.10;99.90
56298;DHT22;42208;6.376;-10.782;2022-07-23T00:30:39;26.00;99.90
56298;DHT22;42208;6.376;-10.782;2022-07-23T00:33:08;26.00;99.90
56298;DHT22;42208;6.376;-10.782;2022-07-23T00:35:38;26.00;99.90
56298;DHT22;42208;6.376;-10.782;2022-07-23T00:38:09;26.00;99.90
56298;DHT22;42208;6.376;-10.782;2022-07-23T00:40:38;25.90;99.90
56298;DHT22;42208;6.376;-10.782;2022-07-23T00:43:07;26.00;99.90
56298;DHT22;42208;6.376;-10.782;2022-07-23T00:45:36;25.90;99.90
56298;DHT22;42208;6.376;-10.782;2022-07-23T00:48:05;26.00;99.90
56298;DHT22;42208;6.376;-10.782;2022-07-23T00:50:34;26.00;99.90
56298;DHT22;42208;6.376;-10.782;2022-07-23T00:53:03;25.90;99.90
56298;DHT22;42208;6.376;-10.782;2022-07-23T00:55:32;25.90;99.90
56298;DHT22;42208;6.376;-10.782;2022-07-23T00:58:02;25.90;99.90
56298;DHT22;42208;6.376;-10.782;2022-07-23T01:00:31;25.90;99.90
56298;DHT22;42208;6.376;-10.782;2022-07-23T01:02:59;25.90;99.90
56298;DHT22;42208;6.376;-10.782;2022-07-23T01:05:27;25.90;99.90
56298;DHT22;42208;6.376;-10.782;2022-07-23T01:07:56;25.90;99.90
56298;DHT22;42208;6.376;-10.782;2022-07-23T01:10:25;25.90;99.90
56298;DHT22;42208;6.376;-10.782;2022-07-23T01:12:53;25.90;99.90
56298;DHT22;42208;6.376;-10.782;2022-07-23T01:15:22;25.90;99.90
56298;DHT22;42208;6.376;-10.782;2022-07-23T01:17:50;25.90;99.90
56298;DHT22;42208;6.376;-10.782;2022-07-23T01:20:19;25.90;99.90
56298;DHT22;42208;6.376;-10.782;2022-07-23T01:22:48;25.90;99.90
56298;DHT22;42208;6.376;-10.782;2022-07-23T01:25:16;25.90;99.90
56298;DHT22;42208;6.376;-10.782;2022-07-23T01:27:54;25.90;99.90
56298;DHT22;42208;6.376;-10.782;2022-07-23T01:30:23;25.90;99.90
56298;DHT22;42208;6.376;-10.782;2022-07-23T01:32:52;25.90;99.90
56298;DHT22;42208;6.376;-10.782;2022-07-23T01:35:20;25.80;99.90
56298;DHT22;42208;6.376;-10.782;2022-07-23T01:37:50;25.90;99.90
56298;DHT22;42208;6.376;-10.782;2022-07-23T01:40:19;25.90;99.90
56298;DHT22;42208;6.376;-10.782;2022-07-23T01:42:50;25.80;99.90
56298;DHT22;42208;6.376;-10.782;2022-07-23T01:45:20;25.80;99.90
56298;DHT22;42208;6.376;-10.782;2022-07-23T01:47:50;25.70;99.90
56298;DHT22;42208;6.376;-10.782;2022-07-23T01:50:19;25.70;99.90
56298;DHT22;42208;6.376;-10.782;2022-07-23T01:53:08;25.70;99.90
56298;DHT22;42208;6.376;-10.782;2022-07-23T01:55:37;25.70;99.90
56298;DHT22;42208;6.376;-10.782;2022-07-23T01:58:05;25.70;99.90
56298;DHT22;42208;6.376;-10.782;2022-07-23T02:00:34;25.70;99.90
56298;DHT22;42208;6.376;-10.782;2022-07-23T02:03:03;25.70;99.90
56298;DHT22;42208;6.376;-10.782;2022-07-23T02:05:31;25.70;99.90
56298;DHT22;42208;6.376;-10.782;2022-07-23T02:08:00;25.70;99.90
56298;DHT22;42208;6.376;-10.782;2022-07-23T02:10:34;25.70;99.90
56298;DHT22;42208;6.376;-10.782;2022-07-23T02:13:03;25.70;99.90
56298;DHT22;42208;6.376;-10.782;2022-07-23T02:15:32;25.70;99.90
56298;DHT22;42208;6.376;-10.782;2022-07-23T02:18:00;25.70;99.90
56298;DHT22;42208;6.376;-10.782;2022-07-23T02:20:31;25.60;99.90
56298;DHT22;42208;6.376;-10.782;2022-07-23T02:22:59;25.60;99.90
56298;DHT22;42208;6.376;-10.782;2022-07-23T02:25:27;25.60;99.90
56298;DHT22;42208;6.376;-10.782;2022-07-23T02:28:01;25.50;99.90
56298;DHT22;42208;6.376;-10.782;2022-07-23T02:30:29;25.50;99.90
56298;DHT22;42208;6.376;-10.782;2022-07-23T02:32:58;25.50;99.90
56298;DHT22;42208;6.376;-10.782;2022-07-23T02:35:26;25.50;99.90
56298;DHT22;42208;6.376;-10.782;2022-07-23T02:37:57;25.50;99.90
56298;DHT22;42208;6.376;-10.782;2022-07-23T02:40:27;25.50;99.90
56298;DHT22;42208;6.376;-10.782;2022-07-23T02:42:55;25.40;99.90
56298;DHT22;42208;6.376;-10.782;2022-07-23T02:45:24;25.50;99.90
56298;DHT22;42208;6.376;-10.782;2022-07-23T02:47:54;25.50;99.90
56298;DHT22;42208;6.376;-10.782;2022-07-23T02:50:22;25.50;99.90
56298;DHT22;42208;6.376;-10.782;2022-07-23T02:52:54;25.50;99.90
56298;DHT22;42208;6.376;-10.782;2022-07-23T02:55:24;25.60;99.90
56298;DHT22;42208;6.376;-10.782;2022-07-23T02:57:53;25.60;99.90
56298;DHT22;42208;6.376;-10.782;2022-07-23T03:00:22;25.60;99.90
56298;DHT22;42208;6.376;-10.782;2022-07-23T03:02:50;25.60;99.90
56298;DHT22;42208;6.376;-10.782;2022-07-23T03:05:18;25.60;99.90
56298;DHT22;42208;6.376;-10.782;2022-07-23T03:07:47;25.60;99.90
56298;DHT22;42208;6.376;-10.782;2022-07-23T03:10:16;25.60;99.90
56298;DHT22;42208;6.376;-10.782;2022-07-23T03:12:44;25.60;99.90
56298;DHT22;42208;6.376;-10.782;2022-07-23T03:15:13;25.60;99.90
56298;DHT22;42208;6.376;-10.782;2022-07-23T03:17:41;25.60;99.90
56298;DHT22;42208;6.376;-10.782;2022-07-23T03:20:10;25.70;99.90
56298;DHT22;42208;6.376;-10.782;2022-07-23T03:22:39;25.70;99.90
56298;DHT22;42208;6.376;-10.782;2022-07-23T03:25:08;25.70;99.90
56298;DHT22;42208;6.376;-10.782;2022-07-23T03:27:36;25.60;99.90
56298;DHT22;42208;6.376;-10.782;2022-07-23T03:30:05;25.60;99.90
56298;DHT22;42208;6.376;-10.782;2022-07-23T03:32:34;25.60;99.90
56298;DHT22;42208;6.376;-10.782;2022-07-23T03:35:02;25.60;99.90
56298;DHT22;42208;6.376;-10.782;2022-07-23T03:37:35;25.50;99.90
56298;DHT22;42208;6.376;-10.782;2022-07-23T03:40:05;25.50;99.90
56298;DHT22;42208;6.376;-10.782;2022-07-23T03:42:35;25.60;99.90
56298;DHT22;42208;6.376;-10.782;2022-07-23T03:45:05;25.50;99.90
56298;DHT22;42208;6.376;-10.782;2022-07-23T03:47:33;25.50;99.90
56298;DHT22;42208;6.376;-10.782;2022-07-23T03:50:02;25.50;99.90
56298;DHT22;42208;6.376;-10.782;2022-07-23T03:52:32;25.50;99.90
56298;DHT22;42208;6.376;-10.782;2022-07-23T03:55:01;25.50;99.90
56298;DHT22;42208;6.376;-10.782;2022-07-23T03:57:30;25.50;99.90
56298;DHT22;42208;6.376;-10.782;2022-07-23T03:59:59;25.50;99.90
56298;DHT22;42208;6.376;-10.782;2022-07-23T04:02:27;25.50;99.90
56298;DHT22;42208;6.376;-10.782;2022-07-23T04:04:55;25.50;99.90
56298;DHT22;42208;6.376;-10.782;2022-07-23T04:07:24;25.50;99.90
56298;DHT22;42208;6.376;-10.782;2022-07-23T04:09:53;25.50;99.90
56298;DHT22;42208;6.376;-10.782;2022-07-23T04:12:21;25.50;99.90
56298;DHT22;42208;6.376;-10.782;2022-07-23T04:14:50;25.40;99.90
56298;DHT22;42208;6.376;-10.782;2022-07-23T04:17:18;25.40;99.90
56298;DHT22;42208;6.376;-10.782;2022-07-23T04:19:46;25.40;99.90
56298;DHT22;42208;6.376;-10.782;2022-07-23T04:22:18;25.40;99.90
56298;DHT22;42208;6.376;-10.782;2022-07-23T04:24:46;25.40;99.90
56298;DHT22;42208;6.376;-10.782;2022-07-23T04:27:15;25.40;99.90
56298;DHT22;42208;6.376;-10.782;2022-07-23T04:29:44;25.30;99.90
56298;DHT22;42208;6.376;-10.782;2022-07-23T04:32:14;25.30;99.90
56298;DHT22;42208;6.376;-10.782;2022-07-23T04:34:42;25.30;99.90
56298;DHT22;42208;6.376;-10.782;2022-07-23T04:37:10;25.30;99.90
56298;DHT22;42208;6.376;-10.782;2022-07-23T04:39:39;25.30;99.90
56298;DHT22;42208;6.376;-10.782;2022-07-23T04:42:08;25.30;99.90
56298;DHT22;42208;6.376;-10.782;2022-07-23T04:44:36;25.30;99.90
56298;DHT22;42208;6.376;-10.782;2022-07-23T04:47:06;25.20;99.90
56298;DHT22;42208;6.376;-10.782;2022-07-23T04:49:34;25.30;99.90
56298;DHT22;42208;6.376;-10.782;2022-07-23T04:52:03;25.30;99.90
56298;DHT22;42208;6.376;-10.782;2022-07-23T04:54:31;25.30;99.90
56298;DHT22;42208;6.376;-10.782;2022-07-23T04:57:00;25.20;99.90
56298;DHT22;42208;6.376;-10.782;2022-07-23T04:59:28;25.20;99.90
56298;DHT22;42208;6.376;-10.782;2022-07-23T05:02:01;25.20;99.90
56298;DHT22;42208;6.376;-10.782;2022-07-23T05:04:30;25.20;99.90
56298;DHT22;42208;6.376;-10.782;2022-07-23T05:06:59;25.10;99.90
56298;DHT22;42208;6.376;-10.782;2022-07-23T05:09:27;25.10;99.90
56298;DHT22;42208;6.376;-10.782;2022-07-23T05:11:56;25.10;99.90
56298;DHT22;42208;6.376;-10.782;2022-07-23T05:14:25;25.10;99.90
56298;DHT22;42208;6.376;-10.782;2022-07-23T05:16:53;25.10;99.90
56298;DHT22;42208;6.376;-10.782;2022-07-23T05:19:23;25.10;99.90
56298;DHT22;42208;6.376;-10.782;2022-07-23T05:21:53;25.10;99.90
56298;DHT22;42208;6.376;-10.782;2022-07-23T05:24:21;25.10;99.90
56298;DHT22;42208;6.376;-10.782;2022-07-23T05:26:52;25.10;99.90
56298;DHT22;42208;6.376;-10.782;2022-07-23T05:29:21;25.10;99.90
56298;DHT22;42208;6.376;-10.782;2022-07-23T05:31:50;25.10;99.90
56298;DHT22;42208;6.376;-10.782;2022-07-23T05:34:19;25.00;99.90
56298;DHT22;42208;6.376;-10.782;2022-07-23T05:36:48;25.00;99.90
56298;DHT22;42208;6.376;-10.782;2022-07-23T05:39:16;25.00;99.90
56298;DHT22;42208;6.376;-10.782;2022-07-23T05:41:45;25.00;99.90
56298;DHT22;42208;6.376;-10.782;2022-07-23T05:44:14;25.00;99.90
56298;DHT22;42208;6.376;-10.782;2022-07-23T05:46:44;25.00;99.90
56298;DHT22;42208;6.376;-10.782;2022-07-23T05:49:18;25.00;99.90
56298;DHT22;42208;6.376;-10.782;2022-07-23T05:52:16;25.00;99.90
56298;DHT22;42208;6.376;-10.782;2022-07-23T05:55:22;25.00;99.90
56298;DHT22;42208;6.376;-10.782;2022-07-23T05:57:50;25.00;99.90
56298;DHT22;42208;6.376;-10.782;2022-07-23T06:00:18;25.00;99.90
56298;DHT22;42208;6.376;-10.782;2022-07-23T06:02:47;25.10;99.90
56298;DHT22;42208;6.376;-10.782;2022-07-23T06:05:22;25.00;99.90
56298;DHT22;42208;6.376;-10.782;2022-07-23T06:07:53;25.00;99.90
56298;DHT22;42208;6.376;-10.782;2022-07-23T06:10:23;25.00;99.90
56298;DHT22;42208;6.376;-10.782;2022-07-23T06:12:51;25.00;99.90
56298;DHT22;42208;6.376;-10.782;2022-07-23T06:15:25;25.00;99.90
56298;DHT22;42208;6.376;-10.782;2022-07-23T06:17:53;25.00;99.90
56298;DHT22;42208;6.376;-10.782;2022-07-23T06:20:22;25.00;99.90
56298;DHT22;42208;6.376;-10.782;2022-07-23T06:22:51;25.00;99.90
56298;DHT22;42208;6.376;-10.782;2022-07-23T06:25:19;25.00;99.90
56298;DHT22;42208;6.376;-10.782;2022-07-23T06:27:48;25.00;99.90
56298;DHT22;42208;6.376;-10.782;2022-07-23T06:30:16;25.00;99.90
56298;DHT22;42208;6.376;-10.782;2022-07-23T06:32:46;25.00;99.90
56298;DHT22;42208;6.376;-10.782;2022-07-23T06:35:16;25.00;99.90
56298;DHT22;42208;6.376;-10.782;2022-07-23T06:37:46;24.90;99.90
56298;DHT22;42208;6.376;-10.782;2022-07-23T06:40:16;25.00;99.90
56298;DHT22;42208;6.376;-10.782;2022-07-23T06:42:44;24.90;99.90
56298;DHT22;42208;6.376;-10.782;2022-07-23T06:45:21;24.80;99.90
56298;DHT22;42208;6.376;-10.782;2022-07-23T06:47:50;24.80;99.90
56298;DHT22;42208;6.376;-10.782;2022-07-23T06:50:18;24.80;99.90
56298;DHT22;42208;6.376;-10.782;2022-07-23T06:52:49;24.80;99.90
56298;DHT22;42208;6.376;-10.782;2022-07-23T06:55:19;24.80;99.90
56298;DHT22;42208;6.376;-10.782;2022-07-23T06:57:47;24.80;99.90
56298;DHT22;42208;6.376;-10.782;2022-07-23T07:00:16;24.80;99.90
56298;DHT22;42208;6.376;-10.782;2022-07-23T07:02:44;24.80;99.90
56298;DHT22;42208;6.376;-10.782;2022-07-23T07:05:13;24.80;99.90
56298;DHT22;42208;6.376;-10.782;2022-07-23T07:07:41;24.80;99.90
56298;DHT22;42208;6.376;-10.782;2022-07-23T07:10:09;24.80;99.90
56298;DHT22;42208;6.376;-10.782;2022-07-23T07:12:42;24.80;99.90
56298;DHT22;42208;6.376;-10.782;2022-07-23T07:15:11;24.80;99.90
56298;DHT22;42208;6.376;-10.782;2022-07-23T07:17:39;24.80;99.90
56298;DHT22;42208;6.376;-10.782;2022-07-23T07:20:08;24.80;99.90
56298;DHT22;42208;6.376;-10.782;2022-07-23T07:22:37;24.80;99.90
56298;DHT22;42208;6.376;-10.782;2022-07-23T07:25:06;24.80;99.90
56298;DHT22;42208;6.376;-10.782;2022-07-23T07:27:34;24.80;99.90
56298;DHT22;42208;6.376;-10.782;2022-07-23T07:30:04;24.80;99.90
56298;DHT22;42208;6.376;-10.782;2022-07-23T07:32:33;24.80;99.90
56298;DHT22;42208;6.376;-10.782;2022-07-23T07:35:21;24.80;99.90
56298;DHT22;42208;6.376;-10.782;2022-07-23T07:37:49;24.90;99.90
56298;DHT22;42208;6.376;-10.782;2022-07-23T07:40:19;24.80;99.90
56298;DHT22;42208;6.376;-10.782;2022-07-23T07:42:52;24.90;99.90
56298;DHT22;42208;6.376;-10.782;2022-07-23T07:45:21;24.90;99.90
56298;DHT22;42208;6.376;-10.782;2022-07-23T07:47:50;25.00;99.90
56298;DHT22;42208;6.376;-10.782;2022-07-23T07:50:19;25.00;99.90
56298;DHT22;42208;6.376;-10.782;2022-07-23T07:52:48;25.10;99.90
56298;DHT22;42208;6.376;-10.782;2022-07-23T07:55:17;25.10;99.90
56298;DHT22;42208;6.376;-10.782;2022-07-23T07:57:46;25.10;99.90
56298;DHT22;42208;6.376;-10.782;2022-07-23T08:00:16;25.20;99.90
56298;DHT22;42208;6.376;-10.782;2022-07-23T08:02:51;25.30;99.90
56298;DHT22;42208;6.376;-10.782;2022-07-23T08:05:22;25.40;99.90
56298;DHT22;42208;6.376;-10.782;2022-07-23T08:07:58;25.40;99.90
56298;DHT22;42208;6.376;-10.782;2022-07-23T08:10:28;25.50;99.90
56298;DHT22;42208;6.376;-10.782;2022-07-23T08:12:57;25.60;99.90
56298;DHT22;42208;6.376;-10.782;2022-07-23T08:15:28;25.70;99.90
56298;DHT22;42208;6.376;-10.782;2022-07-23T08:17:56;25.80;99.90
56298;DHT22;42208;6.376;-10.782;2022-07-23T08:20:25;25.80;99.90
56298;DHT22;42208;6.376;-10.782;2022-07-23T08:23:02;25.90;99.90
56298;DHT22;42208;6.376;-10.782;2022-07-23T08:25:37;26.00;99.90
56298;DHT22;42208;6.376;-10.782;2022-07-23T08:28:11;26.10;99.90
56298;DHT22;42208;6.376;-10.782;2022-07-23T08:30:42;26.20;99.90
56298;DHT22;42208;6.376;-10.782;2022-07-23T08:33:13;26.30;99.90
56298;DHT22;42208;6.376;-10.782;2022-07-23T08:36:02;26.40;99.90
56298;DHT22;42208;6.376;-10.782;2022-07-23T08:38:32;26.50;99.90
56298;DHT22;42208;6.376;-10.782;2022-07-23T08:41:00;26.50;99.90
56298;DHT22;42208;6.376;-10.782;2022-07-23T08:43:31;26.50;99.90
56298;DHT22;42208;6.376;-10.782;2022-07-23T08:46:01;26.60;99.90
56298;DHT22;42208;6.376;-10.782;2022-07-23T08:48:34;26.70;99.90
56298;DHT22;42208;6.376;-10.782;2022-07-23T08:51:06;26.80;99.90
56298;DHT22;42208;6.376;-10.782;2022-07-23T08:53:35;26.90;99.90
56298;DHT22;42208;6.376;-10.782;2022-07-23T08:56:04;26.90;99.90
56298;DHT22;42208;6.376;-10.782;2022-07-23T08:58:35;27.00;99.90
56298;DHT22;42208;6.376;-10.782;2022-07-23T09:01:03;27.00;99.90
56298;DHT22;42208;6.376;-10.782;2022-07-23T09:03:34;27.10;99.90
56298;DHT22;42208;6.376;-10.782;2022-07-23T09:06:03;27.20;99.90
56298;DHT22;42208;6.376;-10.782;2022-07-23T09:08:36;27.30;99.90
56298;DHT22;42208;6.376;-10.782;2022-07-23T09:11:07;27.30;99.90
56298;DHT22;42208;6.376;-10.782;2022-07-23T09:13:54;27.30;99.90
56298;DHT22;42208;6.376;-10.782;2022-07-23T09:16:31;27.20;99.90
56298;DHT22;42208;6.376;-10.782;2022-07-23T09:19:01;27.10;99.90
56298;DHT22;42208;6.376;-10.782;2022-07-23T09:21:32;27.10;99.90
56298;DHT22;42208;6.376;-10.782;2022-07-23T09:26:34;27.10;99.90
56298;DHT22;42208;6.376;-10.782;2022-07-23T09:34:16;27.10;99.90
56298;DHT22;42208;6.376;-10.782;2022-07-23T09:36:46;27.10;99.90
56298;DHT22;42208;6.376;-10.782;2022-07-23T09:39:16;27.10;99.90
56298;DHT22;42208;6.376;-10.782;2022-07-23T09:41:49;27.10;99.90
56298;DHT22;42208;6.376;-10.782;2022-07-23T09:44:20;27.10;99.90
56298;DHT22;42208;6.376;-10.782;2022-07-23T09:46:59;27.10;99.90
56298;DHT22;42208;6.376;-10.782;2022-07-23T09:49:27;27.10;99.90
56298;DHT22;42208;6.376;-10.782;2022-07-23T09:51:58;27.10;99.90
56298;DHT22;42208;6.376;-10.782;2022-07-23T09:54:38;27.10;99.90
56298;DHT22;42208;6.376;-10.782;2022-07-23T09:57:08;27.10;99.90
56298;DHT22;42208;6.376;-10.782;2022-07-23T09:59:39;27.10;99.90
56298;DHT22;42208;6.376;-10.782;2022-07-23T10:02:11;27.10;99.90
56298;DHT22;42208;6.376;-10.782;2022-07-23T10:04:57;27.10;99.90
56298;DHT22;42208;6.376;-10.782;2022-07-23T10:07:46;27.20;99.90
56298;DHT22;42208;6.376;-10.782;2022-07-23T10:10:39;27.40;99.90
56298;DHT22;42208;6.376;-10.782;2022-07-23T10:13:26;27.50;99.90
56298;DHT22;42208;6.376;-10.782;2022-07-23T10:15:55;27.40;99.90
56298;DHT22;42208;6.376;-10.782;2022-07-23T10:18:24;27.40;99.90
56298;DHT22;42208;6.376;-10.782;2022-07-23T10:20:52;27.40;99.90
56298;DHT22;42208;6.376;-10.782;2022-07-23T10:26:16;27.40;99.90
56298;DHT22;42208;6.376;-10.782;2022-07-23T10:39:36;27.50;99.90
56298;DHT22;42208;6.376;-10.782;2022-07-23T10:42:12;27.40;99.90
56298;DHT22;42208;6.376;-10.782;2022-07-23T10:44:43;27.50;99.90
56298;DHT22;42208;6.376;-10.782;2022-07-23T10:47:12;27.50;99.90
56298;DHT22;42208;6.376;-10.782;2022-07-23T10:49:40;27.60;99.90
56298;DHT22;42208;6.376;-10.782;2022-07-23T10:54:48;27.70;99.90
56298;DHT22;42208;6.376;-10.782;2022-07-23T10:57:18;27.60;99.90
56298;DHT22;42208;6.376;-10.782;2022-07-23T11:02:33;27.60;99.90
56298;DHT22;42208;6.376;-10.782;2022-07-23T11:05:12;27.60;99.90
56298;DHT22;42208;6.376;-10.782;2022-07-23T11:10:38;27.70;99.90
56298;DHT22;42208;6.376;-10.782;2022-07-23T11:16:03;28.00;99.90
56298;DHT22;42208;6.376;-10.782;2022-07-23T11:27:07;28.30;99.90
56298;DHT22;42208;6.376;-10.782;2022-07-23T11:32:24;28.30;99.90
56298;DHT22;42208;6.376;-10.782;2022-07-23T11:34:52;28.30;99.90
56298;DHT22;42208;6.376;-10.782;2022-07-23T11:40:01;28.20;99.90
56298;DHT22;42208;6.376;-10.782;2022-07-23T11:42:30;28.20;99.90
56298;DHT22;42208;6.376;-10.782;2022-07-23T11:44:59;28.30;99.90
56298;DHT22;42208;6.376;-10.782;2022-07-23T11:47:27;28.30;99.90
56298;DHT22;42208;6.376;-10.782;2022-07-23T11:49:58;28.30;99.90
56298;DHT22;42208;6.376;-10.782;2022-07-23T11:52:28;28.30;99.90
56298;DHT22;42208;6.376;-10.782;2022-07-23T11:55:08;28.30;99.90
56298;DHT22;42208;6.376;-10.782;2022-07-23T11:57:40;28.20;99.90
56298;DHT22;42208;6.376;-10.782;2022-07-23T12:00:16;28.20;99.90
56298;DHT22;42208;6.376;-10.782;2022-07-23T12:02:51;28.10;99.90
56298;DHT22;42208;6.376;-10.782;2022-07-23T12:05:21;28.20;99.90
56298;DHT22;42208;6.376;-10.782;2022-07-23T12:09:47;28.00;99.90
56298;DHT22;42208;6.376;-10.782;2022-07-23T12:12:15;27.90;99.90
56298;DHT22;42208;6.376;-10.782;2022-07-23T12:14:52;27.90;99.90
56298;DHT22;42208;6.376;-10.782;2022-07-23T12:17:26;27.90;99.90
56298;DHT22;42208;6.376;-10.782;2022-07-23T12:19:58;27.90;99.90
56298;DHT22;42208;6.376;-10.782;2022-07-23T12:22:41;28.00;99.90
56298;DHT22;42208;6.376;-10.782;2022-07-23T12:25:15;28.10;99.90
56298;DHT22;42208;6.376;-10.782;2022-07-23T12:27:44;28.20;99.90
56298;DHT22;42208;6.376;-10.782;2022-07-23T12:30:26;28.20;99.90
56298;DHT22;42208;6.376;-10.782;2022-07-23T12:33:01;28.20;99.90
56298;DHT22;42208;6.376;-10.782;2022-07-23T12:35:48;28.10;99.90
56298;DHT22;42208;6.376;-10.782;2022-07-23T12:38:19;28.00;99.90
56298;DHT22;42208;6.376;-10.782;2022-07-23T12:40:55;27.90;99.90
56298;DHT22;42208;6.376;-10.782;2022-07-23T12:43:26;27.90;99.90
56298;DHT22;42208;6.376;-10.782;2022-07-23T12:46:02;27.90;99.90
56298;DHT22;42208;6.376;-10.782;2022-07-23T12:48:50;27.90;99.90
56298;DHT22;42208;6.376;-10.782;2022-07-23T12:51:30;28.00;99.90
56298;DHT22;42208;6.376;-10.782;2022-07-23T12:54:05;28.10;99.90
56298;DHT22;42208;6.376;-10.782;2022-07-23T12:56:37;28.20;99.90
56298;DHT22;42208;6.376;-10.782;2022-07-23T12:59:07;28.20;99.90
56298;DHT22;42208;6.376;-10.782;2022-07-23T13:01:41;28.30;99.90
56298;DHT22;42208;6.376;-10.782;2022-07-23T13:04:16;28.30;99.90
56298;DHT22;42208;6.376;-10.782;2022-07-23T13:06:53;28.50;99.90
56298;DHT22;42208;6.376;-10.782;2022-07-23T13:09:28;28.60;99.90
56298;DHT22;42208;6.376;-10.782;2022-07-23T13:12:00;28.70;99.90
56298;DHT22;42208;6.376;-10.782;2022-07-23T13:14:29;28.80;99.90
56298;DHT22;42208;6.376;-10.782;2022-07-23T13:16:58;28.90;99.90
56298;DHT22;42208;6.376;-10.782;2022-07-23T13:19:26;28.90;99.90
56298;DHT22;42208;6.376;-10.782;2022-07-23T13:21:55;29.00;99.90
56298;DHT22;42208;6.376;-10.782;2022-07-23T13:24:25;29.00;99.90
56298;DHT22;42208;6.376;-10.782;2022-07-23T13:26:53;28.80;99.90
56298;DHT22;42208;6.376;-10.782;2022-07-23T13:29:22;28.70;99.90
56298;DHT22;42208;6.376;-10.782;2022-07-23T13:31:52;28.90;99.90
56298;DHT22;42208;6.376;-10.782;2022-07-23T13:34:20;28.90;99.90
56298;DHT22;42208;6.376;-10.782;2022-07-23T13:36:49;28.90;99.90
56298;DHT22;42208;6.376;-10.782;2022-07-23T13:39:17;28.90;99.90
56298;DHT22;42208;6.376;-10.782;2022-07-23T13:41:45;28.90;99.90
56298;DHT22;42208;6.376;-10.782;2022-07-23T13:44:17;28.80;99.90
56298;DHT22;42208;6.376;-10.782;2022-07-23T13:46:47;28.80;99.90
56298;DHT22;42208;6.376;-10.782;2022-07-23T13:49:15;28.70;99.90
56298;DHT22;42208;6.376;-10.782;2022-07-23T13:51:43;28.60;99.90
56298;DHT22;42208;6.376;-10.782;2022-07-23T13:54:12;28.50;99.90
56298;DHT22;42208;6.376;-10.782;2022-07-23T13:56:40;28.50;99.90
56298;DHT22;42208;6.376;-10.782;2022-07-23T13:59:09;28.50;99.90
56298;DHT22;42208;6.376;-10.782;2022-07-23T14:01:37;28.50;99.90
56298;DHT22;42208;6.376;-10.782;2022-07-23T14:04:25;28.50;99.90
56298;DHT22;42208;6.376;-10.782;2022-07-23T14:06:54;28.50;99.90
56298;DHT22;42208;6.376;-10.782;2022-07-23T14:09:23;28.40;99.90
56298;DHT22;42208;6.376;-10.782;2022-07-23T14:11:53;28.40;99.90
56298;DHT22;42208;6.376;-10.782;2022-07-23T14:14:21;28.50;99.90
56298;DHT22;42208;6.376;-10.782;2022-07-23T14:16:50;28.50;99.90
56298;DHT22;42208;6.376;-10.782;2022-07-23T14:19:18;28.60;99.90
56298;DHT22;42208;6.376;-10.782;2022-07-23T14:21:46;28.70;99.90
56298;DHT22;42208;6.376;-10.782;2022-07-23T14:24:16;28.80;99.90
56298;DHT22;42208;6.376;-10.782;2022-07-23T14:26:45;29.00;99.90
56298;DHT22;42208;6.376;-10.782;2022-07-23T14:29:13;29.30;99.90
56298;DHT22;42208;6.376;-10.782;2022-07-23T14:31:43;29.30;99.90
56298;DHT22;42208;6.376;-10.782;2022-07-23T14:34:14;29.40;99.90
56298;DHT22;42208;6.376;-10.782;2022-07-23T14:36:42;29.50;99.90
56298;DHT22;42208;6.376;-10.782;2022-07-23T14:39:11;29.70;99.90
56298;DHT22;42208;6.376;-10.782;2022-07-23T14:41:40;29.70;99.90
56298;DHT22;42208;6.376;-10.782;2022-07-23T14:44:09;29.80;99.90
56298;DHT22;42208;6.376;-10.782;2022-07-23T14:46:37;29.90;99.90
56298;DHT22;42208;6.376;-10.782;2022-07-23T14:49:06;30.00;99.90
56298;DHT22;42208;6.376;-10.782;2022-07-23T14:51:35;29.90;99.90
56298;DHT22;42208;6.376;-10.782;2022-07-23T14:54:04;29.80;99.90
56298;DHT22;42208;6.376;-10.782;2022-07-23T14:56:33;29.90;99.90
56298;DHT22;42208;6.376;-10.782;2022-07-23T14:59:03;29.90;99.90
56298;DHT22;42208;6.376;-10.782;2022-07-23T15:01:32;29.90;99.90
56298;DHT22;42208;6.376;-10.782;2022-07-23T15:04:02;29.70;99.90
56298;DHT22;42208;6.376;-10.782;2022-07-23T15:06:51;29.60;99.90
56298;DHT22;42208;6.376;-10.782;2022-07-23T15:09:20;29.40;99.90
56298;DHT22;42208;6.376;-10.782;2022-07-23T15:11:48;29.10;99.90
56298;DHT22;42208;6.376;-10.782;2022-07-23T15:14:19;29.00;99.90
56298;DHT22;42208;6.376;-10.782;2022-07-23T15:16:55;29.10;99.90
56298;DHT22;42208;6.376;-10.782;2022-07-23T15:19:24;29.10;99.90
56298;DHT22;42208;6.376;-10.782;2022-07-23T15:21:52;29.20;99.90
56298;DHT22;42208;6.376;-10.782;2022-07-23T15:24:21;29.20;99.90
56298;DHT22;42208;6.376;-10.782;2022-07-23T15:26:49;29.20;99.90
56298;DHT22;42208;6.376;-10.782;2022-07-23T15:29:17;29.00;99.90
56298;DHT22;42208;6.376;-10.782;2022-07-23T15:31:48;29.00;99.90
56298;DHT22;42208;6.376;-10.782;2022-07-23T15:34:25;29.00;99.90
56298;DHT22;42208;6.376;-10.782;2022-07-23T15:36:55;28.90;99.90
56298;DHT22;42208;6.376;-10.782;2022-07-23T15:39:24;29.00;99.90
56298;DHT22;42208;6.376;-10.782;2022-07-23T15:41:52;29.00;99.90
56298;DHT22;42208;6.376;-10.782;2022-07-23T15:44:20;28.80;99.90
56298;DHT22;42208;6.376;-10.782;2022-07-23T15:46:57;28.80;99.90
56298;DHT22;42208;6.376;-10.782;2022-07-23T15:49:27;28.90;99.90
56298;DHT22;42208;6.376;-10.782;2022-07-23T15:51:57;28.90;99.90
56298;DHT22;42208;6.376;-10.782;2022-07-23T15:54:26;29.00;99.90
56298;DHT22;42208;6.376;-10.782;2022-07-23T15:56:54;29.00;99.90
56298;DHT22;42208;6.376;-10.782;2022-07-23T15:59:23;29.00;99.90
56298;DHT22;42208;6.376;-10.782;2022-07-23T16:01:57;28.70;99.90
56298;DHT22;42208;6.376;-10.782;2022-07-23T16:04:26;28.50;99.90
56298;DHT22;42208;6.376;-10.782;2022-07-23T16:06:57;28.40;99.90
56298;DHT22;42208;6.376;-10.782;2022-07-23T16:09:27;28.40;99.90
56298;DHT22;42208;6.376;-10.782;2022-07-23T16:11:55;28.20;99.90
56298;DHT22;42208;6.376;-10.782;2022-07-23T16:14:26;28.20;99.90
56298;DHT22;42208;6.376;-10.782;2022-07-23T16:16:54;28.20;99.90
56298;DHT22;42208;6.376;-10.782;2022-07-23T16:19:23;28.10;99.90
56298;DHT22;42208;6.376;-10.782;2022-07-23T16:21:52;28.10;99.90
56298;DHT22;42208;6.376;-10.782;2022-07-23T16:24:20;28.00;99.90